sensor_id;sensor_type;location;lat;lon;timestamp;temperature;humidity
43884;DHT22;29544;52.018;5.810;2023-03-07T00:01:42;21.80;40.20
43884;DHT22;29544;52.018;5.810;2023-03-07T00:04:08;21.70;40.20
43884;DHT22;29544;52.018;5.810;2023-03-07T00:06:33;21.70;40.20
43884;DHT22;29544;52.018;5.810;2023-03-07T00:09:00;21.60;40.20
43884;DHT22;29544;52.018;5.810;2023-03-07T00:11:27;21.60;40.20
43884;DHT22;29544;52.018;5.810;2023-03-07T00:13:52;21.50;40.30
43884;DHT22;29544;52.018;5.810;2023-03-07T00:16:20;21.50;40.30
43884;DHT22;29544;52.018;5.810;2023-03-07T00:18:47;21.40;40.30
43884;DHT22;29544;52.018;5.810;2023-03-07T00:21:14;21.40;41.00
43884;DHT22;29544;52.018;5.810;2023-03-07T00:23:42;21.30;40.30
43884;DHT22;29544;52.018;5.810;2023-03-07T00:26:14;21.30;40.40
43884;DHT22;29544;52.018;5.810;2023-03-07T00:28:40;21.20;40.30
43884;DHT22;29544;52.018;5.810;2023-03-07T00:31:09;21.10;40.40
43884;DHT22;29544;52.018;5.810;2023-03-07T00:33:35;21.10;40.40
43884;DHT22;29544;52.018;5.810;2023-03-07T00:36:03;21.00;40.40
43884;DHT22;29544;52.018;5.810;2023-03-07T00:38:30;21.00;40.50
43884;DHT22;29544;52.018;5.810;2023-03-07T00:41:07;21.00;40.50
43884;DHT22;29544;52.018;5.810;2023-03-07T00:43:33;20.90;40.60
43884;DHT22;29544;52.018;5.810;2023-03-07T00:45:59;20.90;40.60
43884;DHT22;29544;52.018;5.810;2023-03-07T00:48:26;20.80;40.60
43884;DHT22;29544;52.018;5.810;2023-03-07T00:50:52;20.80;40.60
43884;DHT22;29544;52.018;5.810;2023-03-07T00:53:18;20.70;40.60
43884;DHT22;29544;52.018;5.810;2023-03-07T00:58:20;20.60;40.70
43884;DHT22;29544;52.018;5.810;2023-03-07T01:00:46;20.60;40.70
43884;DHT22;29544;52.018;5.810;2023-03-07T01:03:11;20.50;40.70
43884;DHT22;29544;52.018;5.810;2023-03-07T01:05:40;20.50;40.70
43884;DHT22;29544;52.018;5.810;2023-03-07T01:08:06;20.50;40.90
43884;DHT22;29544;52.018;5.810;2023-03-07T01:10:32;20.40;40.80
43884;DHT22;29544;52.018;5.810;2023-03-07T01:12:58;20.40;40.90
43884;DHT22;29544;52.018;5.810;2023-03-07T01:15:24;20.30;40.90
43884;DHT22;29544;52.018;5.810;2023-03-07T01:17:50;20.30;40.90
43884;DHT22;29544;52.018;5.810;2023-03-07T01:20:16;20.20;40.90
43884;DHT22;29544;52.018;5.810;2023-03-07T01:22:41;20.20;40.90
43884;DHT22;29544;52.018;5.810;2023-03-07T01:25:07;20.20;41.00
43884;DHT22;29544;52.018;5.810;2023-03-07T01:27:33;20.10;41.00
43884;DHT22;29544;52.018;5.810;2023-03-07T01:29:58;20.10;41.00
43884;DHT22;29544;52.018;5.810;2023-03-07T01:32:24;20.10;41.10
43884;DHT22;29544;52.018;5.810;2023-03-07T01:34:49;20.00;41.10
43884;DHT22;29544;52.018;5.810;2023-03-07T01:37:15;20.00;41.20
43884;DHT22;29544;52.018;5.810;2023-03-07T01:39:40;19.90;41.10
43884;DHT22;29544;52.018;5.810;2023-03-07T01:42:07;19.90;41.80
43884;DHT22;29544;52.018;5.810;2023-03-07T01:47:26;19.80;41.30
43884;DHT22;29544;52.018;5.810;2023-03-07T01:49:52;19.80;41.30
43884;DHT22;29544;52.018;5.810;2023-03-07T01:52:29;19.70;41.40
43884;DHT22;29544;52.018;5.810;2023-03-07T01:55:05;19.70;41.40
43884;DHT22;29544;52.018;5.810;2023-03-07T01:57:36;19.70;41.40
43884;DHT22;29544;52.018;5.810;2023-03-07T02:00:07;19.60;41.30
43884;DHT22;29544;52.018;5.810;2023-03-07T02:02:36;19.60;41.50
43884;DHT22;29544;52.018;5.810;2023-03-07T02:05:14;19.50;41.40
43884;DHT22;29544;52.018;5.810;2023-03-07T02:07:46;19.50;41.50
43884;DHT22;29544;52.018;5.810;2023-03-07T02:10:13;19.50;41.60
43884;DHT22;29544;52.018;5.810;2023-03-07T02:12:40;19.40;41.60
43884;DHT22;29544;52.018;5.810;2023-03-07T02:15:07;19.40;41.60
43884;DHT22;29544;52.018;5.810;2023-03-07T02:17:33;19.40;41.70
43884;DHT22;29544;52.018;5.810;2023-03-07T02:20:09;19.40;41.70
43884;DHT22;29544;52.018;5.810;2023-03-07T02:22:37;19.30;41.70
43884;DHT22;29544;52.018;5.810;2023-03-07T02:25:13;19.30;41.70
43884;DHT22;29544;52.018;5.810;2023-03-07T02:27:41;19.20;41.80
43884;DHT22;29544;52.018;5.810;2023-03-07T02:30:07;19.20;41.80
43884;DHT22;29544;52.018;5.810;2023-03-07T02:32:33;19.20;41.80
43884;DHT22;29544;52.018;5.810;2023-03-07T02:34:59;19.20;41.90
43884;DHT22;29544;52.018;5.810;2023-03-07T02:37:28;19.10;41.90
43884;DHT22;29544;52.018;5.810;2023-03-07T02:39:56;19.10;41.90
43884;DHT22;29544;52.018;5.810;2023-03-07T02:42:26;19.10;42.00
43884;DHT22;29544;52.018;5.810;2023-03-07T02:44:57;19.00;42.00
43884;DHT22;29544;52.018;5.810;2023-03-07T02:47:23;19.00;42.00
43884;DHT22;29544;52.018;5.810;2023-03-07T02:49:49;19.00;42.10
43884;DHT22;29544;52.018;5.810;2023-03-07T02:52:14;18.90;42.10
43884;DHT22;29544;52.018;5.810;2023-03-07T02:54:40;18.90;42.10
43884;DHT22;29544;52.018;5.810;2023-03-07T02:57:06;18.80;42.10
43884;DHT22;29544;52.018;5.810;2023-03-07T02:59:31;18.90;42.20
43884;DHT22;29544;52.018;5.810;2023-03-07T03:01:57;18.80;42.10
43884;DHT22;29544;52.018;5.810;2023-03-07T03:04:22;18.80;42.20
43884;DHT22;29544;52.018;5.810;2023-03-07T03:06:48;18.80;42.30
43884;DHT22;29544;52.018;5.810;2023-03-07T03:09:14;18.70;42.30
43884;DHT22;29544;52.018;5.810;2023-03-07T03:11:39;18.70;42.30
43884;DHT22;29544;52.018;5.810;2023-03-07T03:14:05;18.70;42.40
43884;DHT22;29544;52.018;5.810;2023-03-07T03:16:30;18.70;42.40
43884;DHT22;29544;52.018;5.810;2023-03-07T03:18:56;18.60;42.30
43884;DHT22;29544;52.018;5.810;2023-03-07T03:21:21;18.60;42.40
43884;DHT22;29544;52.018;5.810;2023-03-07T03:23:47;18.60;42.40
43884;DHT22;29544;52.018;5.810;2023-03-07T03:26:12;18.50;42.40
43884;DHT22;29544;52.018;5.810;2023-03-07T03:28:38;18.50;42.40
43884;DHT22;29544;52.018;5.810;2023-03-07T03:31:11;18.50;42.50
43884;DHT22;29544;52.018;5.810;2023-03-07T03:33:41;18.50;42.50
43884;DHT22;29544;52.018;5.810;2023-03-07T03:36:09;18.50;42.60
43884;DHT22;29544;52.018;5.810;2023-03-07T03:38:35;18.50;42.60
43884;DHT22;29544;52.018;5.810;2023-03-07T03:41:05;18.40;42.60
43884;DHT22;29544;52.018;5.810;2023-03-07T03:43:32;18.40;42.60
43884;DHT22;29544;52.018;5.810;2023-03-07T03:45:58;18.40;42.60
43884;DHT22;29544;52.018;5.810;2023-03-07T03:48:24;18.30;42.60
43884;DHT22;29544;52.018;5.810;2023-03-07T03:51:09;18.30;42.60
43884;DHT22;29544;52.018;5.810;2023-03-07T03:53:36;18.30;42.70
43884;DHT22;29544;52.018;5.810;2023-03-07T03:56:06;18.20;42.70
43884;DHT22;29544;52.018;5.810;2023-03-07T03:58:33;18.30;42.70
43884;DHT22;29544;52.018;5.810;2023-03-07T04:01:02;18.20;42.70
43884;DHT22;29544;52.018;5.810;2023-03-07T04:03:36;18.20;42.80
43884;DHT22;29544;52.018;5.810;2023-03-07T04:06:05;18.20;42.80
43884;DHT22;29544;52.018;5.810;2023-03-07T04:08:31;18.10;42.80
43884;DHT22;29544;52.018;5.810;2023-03-07T04:10:57;18.10;42.80
43884;DHT22;29544;52.018;5.810;2023-03-07T04:13:23;18.10;42.80
43884;DHT22;29544;52.018;5.810;2023-03-07T04:15:49;18.10;42.90
43884;DHT22;29544;52.018;5.810;2023-03-07T04:18:15;18.10;42.90
43884;DHT22;29544;52.018;5.810;2023-03-07T04:20:43;18.10;43.00
43884;DHT22;29544;52.018;5.810;2023-03-07T04:23:09;18.00;42.90
43884;DHT22;29544;52.018;5.810;2023-03-07T04:25:35;18.00;42.90
43884;DHT22;29544;52.018;5.810;2023-03-07T04:28:00;18.00;43.00
43884;DHT22;29544;52.018;5.810;2023-03-07T04:30:26;18.00;43.00
43884;DHT22;29544;52.018;5.810;2023-03-07T04:32:51;18.00;43.10
43884;DHT22;29544;52.018;5.810;2023-03-07T04:35:17;17.90;43.00
43884;DHT22;29544;52.018;5.810;2023-03-07T04:37:42;17.90;43.10
43884;DHT22;29544;52.018;5.810;2023-03-07T04:40:09;17.90;43.10
43884;DHT22;29544;52.018;5.810;2023-03-07T04:42:34;17.90;43.10
43884;DHT22;29544;52.018;5.810;2023-03-07T04:45:00;17.80;43.70
43884;DHT22;29544;52.018;5.810;2023-03-07T04:47:25;17.80;43.10
43884;DHT22;29544;52.018;5.810;2023-03-07T04:49:51;17.80;43.10
43884;DHT22;29544;52.018;5.810;2023-03-07T04:52:16;17.80;43.20
43884;DHT22;29544;52.018;5.810;2023-03-07T04:54:42;17.70;43.10
43884;DHT22;29544;52.018;5.810;2023-03-07T04:57:08;17.70;43.20
43884;DHT22;29544;52.018;5.810;2023-03-07T04:59:33;17.80;43.20
43884;DHT22;29544;52.018;5.810;2023-03-07T05:02:05;17.70;43.20
43884;DHT22;29544;52.018;5.810;2023-03-07T05:04:30;17.70;43.20
43884;DHT22;29544;52.018;5.810;2023-03-07T05:06:56;17.70;43.20
43884;DHT22;29544;52.018;5.810;2023-03-07T05:09:21;17.70;43.20
43884;DHT22;29544;52.018;5.810;2023-03-07T05:11:47;17.70;43.30
43884;DHT22;29544;52.018;5.810;2023-03-07T05:14:12;17.60;43.20
43884;DHT22;29544;52.018;5.810;2023-03-07T05:16:38;17.60;43.30
43884;DHT22;29544;52.018;5.810;2023-03-07T05:19:03;17.60;43.30
43884;DHT22;29544;52.018;5.810;2023-03-07T05:21:29;17.60;43.30
43884;DHT22;29544;52.018;5.810;2023-03-07T05:23:54;17.60;43.40
43884;DHT22;29544;52.018;5.810;2023-03-07T05:26:20;17.50;43.40
43884;DHT22;29544;52.018;5.810;2023-03-07T05:28:45;17.50;43.40
43884;DHT22;29544;52.018;5.810;2023-03-07T05:31:11;17.50;43.40
43884;DHT22;29544;52.018;5.810;2023-03-07T05:33:37;17.50;43.40
43884;DHT22;29544;52.018;5.810;2023-03-07T05:36:02;17.50;43.50
43884;DHT22;29544;52.018;5.810;2023-03-07T05:38:28;17.40;43.40
43884;DHT22;29544;52.018;5.810;2023-03-07T05:40:53;17.40;44.10
43884;DHT22;29544;52.018;5.810;2023-03-07T05:43:19;17.40;43.50
43884;DHT22;29544;52.018;5.810;2023-03-07T05:45:44;17.40;43.50
43884;DHT22;29544;52.018;5.810;2023-03-07T05:48:10;17.40;43.50
43884;DHT22;29544;52.018;5.810;2023-03-07T05:50:36;17.40;43.50
43884;DHT22;29544;52.018;5.810;2023-03-07T05:53:03;17.30;43.40
43884;DHT22;29544;52.018;5.810;2023-03-07T05:55:29;17.30;43.50
43884;DHT22;29544;52.018;5.810;2023-03-07T05:57:55;17.30;43.50
43884;DHT22;29544;52.018;5.810;2023-03-07T06:00:21;17.30;43.50
43884;DHT22;29544;52.018;5.810;2023-03-07T06:02:46;17.30;43.50
43884;DHT22;29544;52.018;5.810;2023-03-07T06:05:12;17.30;43.50
43884;DHT22;29544;52.018;5.810;2023-03-07T06:07:38;17.30;43.60
43884;DHT22;29544;52.018;5.810;2023-03-07T06:10:04;17.20;43.60
43884;DHT22;29544;52.018;5.810;2023-03-07T06:12:30;17.20;43.60
43884;DHT22;29544;52.018;5.810;2023-03-07T06:14:55;17.20;43.60
43884;DHT22;29544;52.018;5.810;2023-03-07T06:17:20;17.20;43.60
43884;DHT22;29544;52.018;5.810;2023-03-07T06:19:46;17.20;43.70
43884;DHT22;29544;52.018;5.810;2023-03-07T06:22:12;17.20;43.70
43884;DHT22;29544;52.018;5.810;2023-03-07T06:24:37;17.10;43.70
43884;DHT22;29544;52.018;5.810;2023-03-07T06:27:03;17.20;43.70
43884;DHT22;29544;52.018;5.810;2023-03-07T06:29:29;17.10;43.70
43884;DHT22;29544;52.018;5.810;2023-03-07T06:31:54;17.10;43.70
43884;DHT22;29544;52.018;5.810;2023-03-07T06:34:19;17.10;43.70
43884;DHT22;29544;52.018;5.810;2023-03-07T06:36:45;17.10;43.70
43884;DHT22;29544;52.018;5.810;2023-03-07T06:39:12;17.10;43.70
43884;DHT22;29544;52.018;5.810;2023-03-07T06:41:41;17.10;43.80
43884;DHT22;29544;52.018;5.810;2023-03-07T06:44:07;17.00;43.70
43884;DHT22;29544;52.018;5.810;2023-03-07T06:46:32;17.10;43.80
43884;DHT22;29544;52.018;5.810;2023-03-07T06:48:58;17.00;43.80
43884;DHT22;29544;52.018;5.810;2023-03-07T06:51:23;17.00;43.80
43884;DHT22;29544;52.018;5.810;2023-03-07T06:53:49;17.00;43.80
43884;DHT22;29544;52.018;5.810;2023-03-07T06:56:14;17.00;43.80
43884;DHT22;29544;52.018;5.810;2023-03-07T06:58:40;16.90;43.80
43884;DHT22;29544;52.018;5.810;2023-03-07T07:01:05;17.00;43.80
43884;DHT22;29544;52.018;5.810;2023-03-07T07:03:31;16.90;43.80
43884;DHT22;29544;52.018;5.810;2023-03-07T07:05:56;16.90;43.80
43884;DHT22;29544;52.018;5.810;2023-03-07T07:08:22;16.90;43.80
43884;DHT22;29544;52.018;5.810;2023-03-07T07:10:48;16.90;44.50
43884;DHT22;29544;52.018;5.810;2023-03-07T07:13:13;16.90;43.90
43884;DHT22;29544;52.018;5.810;2023-03-07T07:15:39;16.90;43.90
43884;DHT22;29544;52.018;5.810;2023-03-07T07:18:04;16.80;43.80
43884;DHT22;29544;52.018;5.810;2023-03-07T07:20:30;16.80;43.80
43884;DHT22;29544;52.018;5.810;2023-03-07T07:22:56;16.80;43.90
43884;DHT22;29544;52.018;5.810;2023-03-07T07:25:21;16.80;43.80
43884;DHT22;29544;52.018;5.810;2023-03-07T07:27:47;16.80;43.80
43884;DHT22;29544;52.018;5.810;2023-03-07T07:30:13;16.70;43.80
43884;DHT22;29544;52.018;5.810;2023-03-07T07:32:38;16.70;43.90
43884;DHT22;29544;52.018;5.810;2023-03-07T07:35:05;16.80;43.90
43884;DHT22;29544;52.018;5.810;2023-03-07T07:37:30;16.70;43.90
43884;DHT22;29544;52.018;5.810;2023-03-07T07:39:56;16.70;43.90
43884;DHT22;29544;52.018;5.810;2023-03-07T07:42:21;16.70;43.90
43884;DHT22;29544;52.018;5.810;2023-03-07T07:44:47;16.70;43.90
43884;DHT22;29544;52.018;5.810;2023-03-07T07:47:13;16.70;43.90
43884;DHT22;29544;52.018;5.810;2023-03-07T07:49:38;16.70;43.90
43884;DHT22;29544;52.018;5.810;2023-03-07T07:52:04;16.60;43.90
43884;DHT22;29544;52.018;5.810;2023-03-07T07:54:30;16.60;43.90
43884;DHT22;29544;52.018;5.810;2023-03-07T07:56:55;16.60;43.90
43884;DHT22;29544;52.018;5.810;2023-03-07T07:59:22;16.60;43.90
43884;DHT22;29544;52.018;5.810;2023-03-07T08:01:48;16.60;44.00
43884;DHT22;29544;52.018;5.810;2023-03-07T08:04:13;16.60;44.00
43884;DHT22;29544;52.018;5.810;2023-03-07T08:06:39;16.60;44.00
43884;DHT22;29544;52.018;5.810;2023-03-07T08:09:04;16.60;44.00
43884;DHT22;29544;52.018;5.810;2023-03-07T08:11:30;16.60;44.00
43884;DHT22;29544;52.018;5.810;2023-03-07T08:13:55;16.50;44.00
43884;DHT22;29544;52.018;5.810;2023-03-07T08:16:22;16.50;44.60
43884;DHT22;29544;52.018;5.810;2023-03-07T08:18:53;16.50;44.00
43884;DHT22;29544;52.018;5.810;2023-03-07T08:21:19;16.50;44.10
43884;DHT22;29544;52.018;5.810;2023-03-07T08:23:45;16.50;44.00
43884;DHT22;29544;52.018;5.810;2023-03-07T08:26:11;16.50;44.00
43884;DHT22;29544;52.018;5.810;2023-03-07T08:28:38;16.50;44.10
43884;DHT22;29544;52.018;5.810;2023-03-07T08:31:09;16.40;44.10
43884;DHT22;29544;52.018;5.810;2023-03-07T08:33:35;16.40;44.10
43884;DHT22;29544;52.018;5.810;2023-03-07T08:36:01;16.40;44.20
43884;DHT22;29544;52.018;5.810;2023-03-07T08:38:27;16.40;44.80
43884;DHT22;29544;52.018;5.810;2023-03-07T08:40:52;16.40;44.30
43884;DHT22;29544;52.018;5.810;2023-03-07T08:43:18;16.30;44.30
43884;DHT22;29544;52.018;5.810;2023-03-07T08:45:43;16.30;44.40
43884;DHT22;29544;52.018;5.810;2023-03-07T08:48:09;16.30;44.50
43884;DHT22;29544;52.018;5.810;2023-03-07T08:50:35;16.30;44.60
43884;DHT22;29544;52.018;5.810;2023-03-07T08:53:01;16.30;44.50
43884;DHT22;29544;52.018;5.810;2023-03-07T08:55:26;16.30;45.20
43884;DHT22;29544;52.018;5.810;2023-03-07T08:57:52;16.30;44.50
43884;DHT22;29544;52.018;5.810;2023-03-07T09:00:18;16.20;44.50
43884;DHT22;29544;52.018;5.810;2023-03-07T09:02:44;16.20;44.50
43884;DHT22;29544;52.018;5.810;2023-03-07T09:05:10;16.20;44.50
43884;DHT22;29544;52.018;5.810;2023-03-07T09:07:35;16.20;44.50
43884;DHT22;29544;52.018;5.810;2023-03-07T09:10:01;16.20;44.50
43884;DHT22;29544;52.018;5.810;2023-03-07T09:12:27;16.20;44.50
43884;DHT22;29544;52.018;5.810;2023-03-07T09:14:53;16.20;44.50
43884;DHT22;29544;52.018;5.810;2023-03-07T09:17:19;16.10;44.50
43884;DHT22;29544;52.018;5.810;2023-03-07T09:19:44;16.10;44.40
43884;DHT22;29544;52.018;5.810;2023-03-07T09:22:10;16.10;44.50
43884;DHT22;29544;52.018;5.810;2023-03-07T09:24:35;16.10;44.90
43884;DHT22;29544;52.018;5.810;2023-03-07T09:27:01;16.10;45.60
43884;DHT22;29544;52.018;5.810;2023-03-07T09:29:26;16.20;45.90
43884;DHT22;29544;52.018;5.810;2023-03-07T09:31:52;16.20;45.80
43884;DHT22;29544;52.018;5.810;2023-03-07T09:34:18;16.20;45.60
43884;DHT22;29544;52.018;5.810;2023-03-07T09:36:43;16.10;45.30
43884;DHT22;29544;52.018;5.810;2023-03-07T09:39:09;16.10;45.30
43884;DHT22;29544;52.018;5.810;2023-03-07T09:46:49;16.10;45.10
43884;DHT22;29544;52.018;5.810;2023-03-07T09:52:17;16.00;45.10
43884;DHT22;29544;52.018;5.810;2023-03-07T09:54:48;16.00;45.00
43884;DHT22;29544;52.018;5.810;2023-03-07T09:57:25;16.00;45.10
43884;DHT22;29544;52.018;5.810;2023-03-07T09:59:55;16.00;45.00
43884;DHT22;29544;52.018;5.810;2023-03-07T10:02:34;16.00;45.00
43884;DHT22;29544;52.018;5.810;2023-03-07T10:07:53;16.00;44.90
43884;DHT22;29544;52.018;5.810;2023-03-07T10:13:18;16.00;44.90
43884;DHT22;29544;52.018;5.810;2023-03-07T10:16:01;15.90;44.90
43884;DHT22;29544;52.018;5.810;2023-03-07T10:18:40;15.90;44.90
43884;DHT22;29544;52.018;5.810;2023-03-07T10:21:32;15.90;44.90
43884;DHT22;29544;52.018;5.810;2023-03-07T10:27:05;15.90;44.90
43884;DHT22;29544;52.018;5.810;2023-03-07T10:29:44;15.90;44.90
43884;DHT22;29544;52.018;5.810;2023-03-07T10:34:46;15.80;44.80
43884;DHT22;29544;52.018;5.810;2023-03-07T10:37:20;15.80;44.80
43884;DHT22;29544;52.018;5.810;2023-03-07T10:39:50;15.80;44.90
43884;DHT22;29544;52.018;5.810;2023-03-07T10:42:18;15.80;44.80
43884;DHT22;29544;52.018;5.810;2023-03-07T10:44:45;15.80;44.90
43884;DHT22;29544;52.018;5.810;2023-03-07T10:47:24;15.80;44.90
43884;DHT22;29544;52.018;5.810;2023-03-07T10:49:53;15.80;44.90
43884;DHT22;29544;52.018;5.810;2023-03-07T10:52:39;15.80;44.90
43884;DHT22;29544;52.018;5.810;2023-03-07T10:55:43;15.80;45.00
43884;DHT22;29544;52.018;5.810;2023-03-07T10:58:24;15.80;45.00
43884;DHT22;29544;52.018;5.810;2023-03-07T11:01:16;15.80;45.00
43884;DHT22;29544;52.018;5.810;2023-03-07T11:03:50;15.70;44.90
43884;DHT22;29544;52.018;5.810;2023-03-07T11:06:38;15.80;45.00
43884;DHT22;29544;52.018;5.810;2023-03-07T11:11:39;15.70;44.90
43884;DHT22;29544;52.018;5.810;2023-03-07T11:14:07;15.70;44.90
43884;DHT22;29544;52.018;5.810;2023-03-07T11:17:21;15.70;45.00
43884;DHT22;29544;52.018;5.810;2023-03-07T11:21:58;15.70;45.00
43884;DHT22;29544;52.018;5.810;2023-03-07T11:24:27;15.70;45.00
43884;DHT22;29544;52.018;5.810;2023-03-07T11:26:58;15.70;45.00
43884;DHT22;29544;52.018;5.810;2023-03-07T11:29:24;15.60;45.00
43884;DHT22;29544;52.018;5.810;2023-03-07T11:34:52;15.70;45.00
43884;DHT22;29544;52.018;5.810;2023-03-07T11:38:16;15.60;45.00
43884;DHT22;29544;52.018;5.810;2023-03-07T11:43:19;15.60;45.00
43884;DHT22;29544;52.018;5.810;2023-03-07T11:46:02;15.60;45.00
43884;DHT22;29544;52.018;5.810;2023-03-07T11:48:55;15.60;45.30
43884;DHT22;29544;52.018;5.810;2023-03-07T11:51:50;15.70;47.60
43884;DHT22;29544;52.018;5.810;2023-03-07T12:00:30;15.70;47.70
43884;DHT22;29544;52.018;5.810;2023-03-07T12:03:05;15.70;47.70
43884;DHT22;29544;52.018;5.810;2023-03-07T12:14:07;15.60;46.80
43884;DHT22;29544;52.018;5.810;2023-03-07T12:16:51;15.60;46.50
43884;DHT22;29544;52.018;5.810;2023-03-07T12:20:22;15.60;46.50
43884;DHT22;29544;52.018;5.810;2023-03-07T12:22:29;15.60;46.40
43884;DHT22;29544;52.018;5.810;2023-03-07T12:25:24;15.60;46.50
43884;DHT22;29544;52.018;5.810;2023-03-07T12:31:39;15.50;46.30
43884;DHT22;29544;52.018;5.810;2023-03-07T12:33:49;15.50;46.30
43884;DHT22;29544;52.018;5.810;2023-03-07T12:39:54;15.50;46.20
43884;DHT22;29544;52.018;5.810;2023-03-07T12:45:10;15.40;46.10
43884;DHT22;29544;52.018;5.810;2023-03-07T12:47:54;15.40;46.10
43884;DHT22;29544;52.018;5.810;2023-03-07T12:55:50;15.30;46.00
43884;DHT22;29544;52.018;5.810;2023-03-07T12:58:43;15.30;46.00
43884;DHT22;29544;52.018;5.810;2023-03-07T13:06:35;15.30;46.00
43884;DHT22;29544;52.018;5.810;2023-03-07T13:09:04;15.30;46.00
43884;DHT22;29544;52.018;5.810;2023-03-07T13:11:32;15.30;46.00
43884;DHT22;29544;52.018;5.810;2023-03-07T13:14:03;15.30;46.00
43884;DHT22;29544;52.018;5.810;2023-03-07T13:16:43;15.30;46.00
43884;DHT22;29544;52.018;5.810;2023-03-07T13:22:03;15.20;46.00
43884;DHT22;29544;52.018;5.810;2023-03-07T13:24:55;15.20;46.10
43884;DHT22;29544;52.018;5.810;2023-03-07T13:30:17;15.20;46.00
43884;DHT22;29544;52.018;5.810;2023-03-07T13:37:59;15.20;46.00
43884;DHT22;29544;52.018;5.810;2023-03-07T13:45:52;15.20;46.00
43884;DHT22;29544;52.018;5.810;2023-03-07T13:53:21;15.20;46.00
43884;DHT22;29544;52.018;5.810;2023-03-07T13:55:56;15.10;46.00
43884;DHT22;29544;52.018;5.810;2023-03-07T14:03:57;15.10;46.00
43884;DHT22;29544;52.018;5.810;2023-03-07T14:06:33;15.20;46.10
43884;DHT22;29544;52.018;5.810;2023-03-07T14:09:01;15.10;46.00
43884;DHT22;29544;52.018;5.810;2023-03-07T14:11:50;15.10;46.00
43884;DHT22;29544;52.018;5.810;2023-03-07T14:25:24;15.00;46.00
43884;DHT22;29544;52.018;5.810;2023-03-07T14:30:22;15.00;46.70
43884;DHT22;29544;52.018;5.810;2023-03-07T14:32:49;15.00;46.00
43884;DHT22;29544;52.018;5.810;2023-03-07T14:35:41;15.00;46.10
43884;DHT22;29544;52.018;5.810;2023-03-07T14:38:20;15.00;46.00
43884;DHT22;29544;52.018;5.810;2023-03-07T14:46:25;15.00;46.10
43884;DHT22;29544;52.018;5.810;2023-03-07T14:51:46;14.90;46.10
43884;DHT22;29544;52.018;5.810;2023-03-07T14:54:18;14.90;46.10
43884;DHT22;29544;52.018;5.810;2023-03-07T14:56:44;14.90;46.10
43884;DHT22;29544;52.018;5.810;2023-03-07T14:59:12;14.90;46.10
43884;DHT22;29544;52.018;5.810;2023-03-07T15:01:39;14.90;46.10
43884;DHT22;29544;52.018;5.810;2023-03-07T15:06:54;14.90;46.10
43884;DHT22;29544;52.018;5.810;2023-03-07T15:09:20;14.90;46.10
43884;DHT22;29544;52.018;5.810;2023-03-07T15:12:11;14.90;46.10
43884;DHT22;29544;52.018;5.810;2023-03-07T15:17:28;14.90;46.10
43884;DHT22;29544;52.018;5.810;2023-03-07T15:19:58;14.90;46.10
43884;DHT22;29544;52.018;5.810;2023-03-07T15:22:29;14.80;46.00
43884;DHT22;29544;52.018;5.810;2023-03-07T15:24:56;14.90;46.20
43884;DHT22;29544;52.018;5.810;2023-03-07T15:27:25;14.90;46.60
43884;DHT22;29544;52.018;5.810;2023-03-07T15:29:51;14.80;46.30
43884;DHT22;29544;52.018;5.810;2023-03-07T15:32:35;14.90;46.30
43884;DHT22;29544;52.018;5.810;2023-03-07T15:40:39;14.80;46.20
43884;DHT22;29544;52.018;5.810;2023-03-07T15:43:24;14.80;46.10
43884;DHT22;29544;52.018;5.810;2023-03-07T15:46:14;14.80;46.20
43884;DHT22;29544;52.018;5.810;2023-03-07T15:48:48;14.70;46.10
43884;DHT22;29544;52.018;5.810;2023-03-07T15:51:17;14.70;46.20
43884;DHT22;29544;52.018;5.810;2023-03-07T15:53:47;14.70;46.10
43884;DHT22;29544;52.018;5.810;2023-03-07T15:56:31;14.70;46.20
43884;DHT22;29544;52.018;5.810;2023-03-07T15:59:35;14.70;46.20
43884;DHT22;29544;52.018;5.810;2023-03-07T16:02:24;14.70;46.20
43884;DHT22;29544;52.018;5.810;2023-03-07T16:04:49;14.70;46.20
43884;DHT22;29544;52.018;5.810;2023-03-07T16:07:17;14.70;46.20
43884;DHT22;29544;52.018;5.810;2023-03-07T16:09:43;14.70;46.20
43884;DHT22;29544;52.018;5.810;2023-03-07T16:12:13;14.70;46.20
43884;DHT22;29544;52.018;5.810;2023-03-07T16:14:40;14.60;46.30
43884;DHT22;29544;52.018;5.810;2023-03-07T16:17:18;14.60;46.30
43884;DHT22;29544;52.018;5.810;2023-03-07T16:19:45;14.60;46.30
43884;DHT22;29544;52.018;5.810;2023-03-07T16:22:15;14.60;46.30
43884;DHT22;29544;52.018;5.810;2023-03-07T16:24:42;14.60;46.30
43884;DHT22;29544;52.018;5.810;2023-03-07T16:27:28;14.60;46.30
43884;DHT22;29544;52.018;5.810;2023-03-07T16:29:53;14.60;46.30
43884;DHT22;29544;52.018;5.810;2023-03-07T16:32:20;14.60;46.30
43884;DHT22;29544;52.018;5.810;2023-03-07T16:34:47;14.60;46.60
43884;DHT22;29544;52.018;5.810;2023-03-07T16:37:15;14.60;46.70
43884;DHT22;29544;52.018;5.810;2023-03-07T16:39:41;14.60;47.20
43884;DHT22;29544;52.018;5.810;2023-03-07T16:42:17;14.60;47.10
43884;DHT22;29544;52.018;5.810;2023-03-07T16:44:43;14.60;46.90
43884;DHT22;29544;52.018;5.810;2023-03-07T16:47:16;14.60;46.80
43884;DHT22;29544;52.018;5.810;2023-03-07T16:49:42;14.60;47.50
43884;DHT22;29544;52.018;5.810;2023-03-07T16:52:12;14.60;47.50
43884;DHT22;29544;52.018;5.810;2023-03-07T16:54:38;14.60;47.40
43884;DHT22;29544;52.018;5.810;2023-03-07T16:57:06;14.60;47.10
43884;DHT22;29544;52.018;5.810;2023-03-07T16:59:36;14.60;47.00
43884;DHT22;29544;52.018;5.810;2023-03-07T17:02:13;14.60;47.00
43884;DHT22;29544;52.018;5.810;2023-03-07T17:04:39;14.60;46.90
43884;DHT22;29544;52.018;5.810;2023-03-07T17:07:14;14.60;46.90
43884;DHT22;29544;52.018;5.810;2023-03-07T17:09:40;14.60;47.50
43884;DHT22;29544;52.018;5.810;2023-03-07T17:12:06;14.60;47.00
43884;DHT22;29544;52.018;5.810;2023-03-07T17:14:33;14.60;47.10
43884;DHT22;29544;52.018;5.810;2023-03-07T17:16:59;14.60;47.20
43884;DHT22;29544;52.018;5.810;2023-03-07T17:19:27;14.70;47.20
43884;DHT22;29544;52.018;5.810;2023-03-07T17:21:53;14.70;47.20
43884;DHT22;29544;52.018;5.810;2023-03-07T17:24:19;14.70;47.20
43884;DHT22;29544;52.018;5.810;2023-03-07T17:26:45;14.80;47.40
43884;DHT22;29544;52.018;5.810;2023-03-07T17:29:30;14.90;47.20
43884;DHT22;29544;52.018;5.810;2023-03-07T17:31:57;15.00;47.20
43884;DHT22;29544;52.018;5.810;2023-03-07T17:34:25;15.10;47.20
43884;DHT22;29544;52.018;5.810;2023-03-07T17:36:51;15.10;47.20
43884;DHT22;29544;52.018;5.810;2023-03-07T17:39:17;15.20;47.20
43884;DHT22;29544;52.018;5.810;2023-03-07T17:41:43;15.20;47.20
43884;DHT22;29544;52.018;5.810;2023-03-07T17:44:08;15.30;47.20
43884;DHT22;29544;52.018;5.810;2023-03-07T17:46:34;15.40;47.20
43884;DHT22;29544;52.018;5.810;2023-03-07T17:48:59;15.50;47.10
43884;DHT22;29544;52.018;5.810;2023-03-07T17:51:25;15.60;46.90
43884;DHT22;29544;52.018;5.810;2023-03-07T17:53:50;15.70;46.80